Time;durP1;ratioP1;P1;durP2;ratioP2;P2;SDS_P1;SDS_P2;PMS_P1;PMS_P2;Temp;Humidity;BMP_temperature;BMP_pressure;BME280_temperature;BME280_humidity;BME280_pressure;Samples;Min_cycle;Max_cycle;Signal;HPM_P1;HPM_P2
2021/12/26 00:01:06;;;;;;;5.78;2.30;;;-2.40;94.10;;;;;;5056650;28;20049;-78
2021/12/26 00:03:33;;;;;;;4.70;2.13;;;-2.40;93.90;;;;;;5039334;28;20041;-78
2021/12/26 00:06:05;;;;;;;5.93;2.20;;;-2.40;94.10;;;;;;5040029;28;20056;-77
2021/12/26 00:08:36;;;;;;;5.33;2.30;;;-2.40;94.10;;;;;;5039784;28;20180;-77
2021/12/26 00:11:03;;;;;;;6.40;2.20;;;-2.50;94.10;;;;;;5040167;28;20068;-77
2021/12/26 00:13:30;;;;;;;5.40;2.65;;;-2.60;94.20;;;;;;5039600;28;20175;-77
2021/12/26 00:15:57;;;;;;;4.50;1.90;;;-2.70;94.10;;;;;;5023673;28;20128;-78
2021/12/26 00:18:22;;;;;;;10.15;2.45;;;-2.70;94.20;;;;;;5056597;28;20053;-78
2021/12/26 00:20:48;;;;;;;5.53;2.35;;;-2.60;94.30;;;;;;5039972;28;20072;-78
2021/12/26 00:23:16;;;;;;;4.05;2.05;;;-2.60;94.40;;;;;;5039950;28;20396;-77
2021/12/26 00:25:42;;;;;;;6.22;2.53;;;-2.60;94.20;;;;;;5040187;28;20049;-78
2021/12/26 00:28:08;;;;;;;5.30;2.10;;;-2.60;94.40;;;;;;5023704;28;20045;-78
2021/12/26 00:30:34;;;;;;;7.00;2.55;;;-2.50;94.40;;;;;;5040122;28;20103;-78
2021/12/26 00:33:00;;;;;;;8.88;2.20;;;-2.50;94.30;;;;;;5039326;28;20048;-78
2021/12/26 00:35:26;;;;;;;6.00;2.80;;;-2.60;94.20;;;;;;5039832;28;20420;-78
2021/12/26 00:37:53;;;;;;;5.22;2.47;;;-2.70;94.50;;;;;;5023491;28;20049;-78
2021/12/26 00:40:20;;;;;;;7.05;2.78;;;-2.60;94.40;;;;;;5040242;28;20053;-77
2021/12/26 00:42:47;;;;;;;5.45;2.70;;;-2.60;94.30;;;;;;5040238;28;20049;-78
2021/12/26 00:45:14;;;;;;;8.40;2.90;;;-2.60;94.30;;;;;;5039846;28;20038;-77
2021/12/26 00:47:40;;;;;;;8.68;2.50;;;-2.60;94.30;;;;;;5039927;28;20053;-78
2021/12/26 00:50:09;;;;;;;7.88;2.92;;;-2.60;94.20;;;;;;5039684;28;20061;-78
2021/12/26 00:52:34;;;;;;;6.45;2.50;;;-2.70;94.00;;;;;;5055971;28;20103;-78
2021/12/26 00:55:00;;;;;;;7.07;2.47;;;-2.60;94.20;;;;;;5040024;28;20042;-77
2021/12/26 00:57:26;;;;;;;6.82;2.92;;;-2.70;94.20;;;;;;5056288;28;20045;-78
2021/12/26 00:59:51;;;;;;;10.48;3.30;;;-2.60;94.10;;;;;;5038923;28;20045;-77
2021/12/26 01:02:17;;;;;;;6.35;3.08;;;-2.70;94.20;;;;;;5056331;28;20049;-78
2021/12/26 01:04:43;;;;;;;6.63;2.80;;;-2.80;94.00;;;;;;5056352;28;20041;-78
2021/12/26 01:07:23;;;;;;;7.45;3.05;;;-2.80;94.20;;;;;;5038616;28;20052;-77
2021/12/26 01:09:51;;;;;;;6.88;2.28;;;-2.80;94.00;;;;;;5021272;28;20049;-77
2021/12/26 01:12:18;;;;;;;9.35;2.58;;;-2.90;94.10;;;;;;5052663;28;20053;-77
2021/12/26 01:14:50;;;;;;;7.03;2.40;;;-2.80;93.90;;;;;;5053032;28;20115;-77
2021/12/26 01:17:20;;;;;;;6.40;2.78;;;-2.80;94.00;;;;;;5020780;28;20054;-77
2021/12/26 01:19:50;;;;;;;5.90;2.60;;;-2.70;94.00;;;;;;5052491;28;20084;-78
2021/12/26 01:22:17;;;;;;;6.65;2.30;;;-2.70;94.00;;;;;;5036028;28;20053;-77
2021/12/26 01:24:44;;;;;;;5.80;2.20;;;-2.60;93.80;;;;;;5020048;28;20180;-77
2021/12/26 01:27:11;;;;;;;5.72;2.30;;;-2.50;93.70;;;;;;5052617;28;20054;-78
2021/12/26 01:29:37;;;;;;;7.20;2.40;;;-2.50;93.60;;;;;;5019982;28;20071;-77
2021/12/26 01:32:04;;;;;;;4.78;2.15;;;-2.60;93.70;;;;;;5035895;28;20095;-77
2021/12/26 01:34:31;;;;;;;4.45;2.05;;;-2.60;93.70;;;;;;5019952;28;20179;-78
2021/12/26 01:36:56;;;;;;;5.95;2.17;;;-2.60;93.70;;;;;;5036589;28;20088;-77
2021/12/26 01:39:23;;;;;;;4.45;1.92;;;-2.60;93.70;;;;;;5035632;28;20191;-78
2021/12/26 01:41:49;;;;;;;4.53;1.70;;;-2.60;93.70;;;;;;5036295;28;20134;-78
2021/12/26 01:44:16;;;;;;;6.22;2.45;;;-2.70;93.60;;;;;;5052838;28;20092;-79
2021/12/26 01:46:44;;;;;;;4.13;1.95;;;-2.60;93.50;;;;;;5035958;28;20045;-77
2021/12/26 01:49:20;;;;;;;5.13;2.03;;;-2.60;93.40;;;;;;5033592;28;20518;-77
2021/12/26 01:51:48;;;;;;;6.18;2.05;;;-2.80;93.40;;;;;;5034701;28;20061;-77
2021/12/26 01:54:27;;;;;;;3.67;1.58;;;-2.70;93.70;;;;;;5035615;28;20424;-78
2021/12/26 01:56:53;;;;;;;4.32;1.70;;;-2.70;93.40;;;;;;5035958;28;20060;-77
2021/12/26 01:59:18;;;;;;;4.28;1.90;;;-2.80;93.20;;;;;;5035815;28;20124;-77
2021/12/26 02:01:44;;;;;;;4.95;1.77;;;-2.80;93.30;;;;;;5035835;28;20052;-77
2021/12/26 02:04:11;;;;;;;5.30;1.67;;;-2.80;92.90;;;;;;5035794;28;20053;-77
2021/12/26 02:06:37;;;;;;;4.35;1.60;;;-2.80;92.90;;;;;;5035793;28;20091;-77
2021/12/26 02:09:03;;;;;;;4.75;1.20;;;-2.80;92.60;;;;;;5035648;28;20049;-77
2021/12/26 02:11:29;;;;;;;6.05;1.70;;;-2.80;92.40;;;;;;5035246;28;20046;-77
2021/12/26 02:13:55;;;;;;;7.63;1.80;;;-2.90;92.60;;;;;;5018397;28;20045;-78
2021/12/26 02:16:23;;;;;;;4.80;1.50;;;-2.90;92.40;;;;;;5036661;28;20049;-78
2021/12/26 02:18:48;;;;;;;2.72;1.30;;;-2.90;92.60;;;;;;5035174;28;20052;-77
2021/12/26 02:23:47;;;;;;;4.10;1.20;;;-2.80;92.60;;;;;;5018000;28;20140;-77
2021/12/26 02:28:42;;;;;;;4.07;1.58;;;-2.80;92.60;;;;;;5034993;28;20049;-77
2021/12/26 02:31:08;;;;;;;3.33;1.15;;;-2.80;92.60;;;;;;5034849;28;20132;-77
2021/12/26 02:33:35;;;;;;;5.55;1.67;;;-2.70;92.60;;;;;;5034046;28;20192;-77
2021/12/26 02:36:01;;;;;;;4.55;1.63;;;-2.70;92.60;;;;;;5034698;28;20551;-77
2021/12/26 02:38:27;;;;;;;5.85;1.40;;;-2.90;92.30;;;;;;5034971;28;20118;-78
2021/12/26 02:40:55;;;;;;;3.53;1.37;;;-2.90;92.50;;;;;;5034273;28;20080;-77
2021/12/26 02:43:23;;;;;;;3.65;1.58;;;-2.90;92.30;;;;;;5034540;28;20037;-77
2021/12/26 02:45:48;;;;;;;4.85;1.40;;;-2.90;92.50;;;;;;5035824;28;20186;-77
2021/12/26 02:48:15;;;;;;;3.60;1.10;;;-2.90;92.70;;;;;;5033961;28;20151;-77
2021/12/26 02:50:43;;;;;;;4.43;1.50;;;-2.90;92.40;;;;;;5034031;28;20498;-77
2021/12/26 02:53:12;;;;;;;4.57;1.65;;;-2.90;92.40;;;;;;5034222;28;20045;-78
2021/12/26 02:55:38;;;;;;;3.90;1.23;;;-2.80;92.40;;;;;;5034381;28;20049;-78
2021/12/26 02:58:07;;;;;;;4.95;1.42;;;-2.80;92.60;;;;;;5034455;28;20061;-78
2021/12/26 03:00:51;;;;;;;3.92;1.33;;;-2.80;92.60;;;;;;5034244;28;20045;-78
2021/12/26 03:03:17;;;;;;;3.28;1.52;;;-2.70;92.40;;;;;;5033633;28;20052;-78
2021/12/26 03:05:46;;;;;;;4.43;1.20;;;-2.80;92.70;;;;;;5034051;28;20136;-78
2021/12/26 03:08:16;;;;;;;4.33;1.30;;;-2.90;92.90;;;;;;5033933;28;20049;-78
2021/12/26 03:10:42;;;;;;;5.15;1.67;;;-2.90;93.00;;;;;;5034411;28;20132;-77
2021/12/26 03:13:10;;;;;;;7.65;2.00;;;-3.00;92.90;;;;;;5034239;28;20065;-77
2021/12/26 03:15:37;;;;;;;4.32;1.95;;;-2.90;93.00;;;;;;5034384;28;20136;-77
2021/12/26 03:18:04;;;;;;;3.73;1.37;;;-2.80;93.00;;;;;;5034087;28;20405;-78
2021/12/26 03:20:34;;;;;;;6.05;1.60;;;-2.80;93.00;;;;;;5033724;28;20056;-78
2021/12/26 03:23:01;;;;;;;5.53;1.67;;;-2.90;92.80;;;;;;5034208;28;20061;-78
2021/12/26 03:25:28;;;;;;;4.32;1.70;;;-2.90;92.80;;;;;;5033533;28;20042;-78
2021/12/26 03:27:54;;;;;;;5.22;1.58;;;-2.90;92.80;;;;;;5033413;28;20099;-78
2021/12/26 03:30:25;;;;;;;3.97;1.60;;;-2.90;92.60;;;;;;5034042;28;20397;-78
2021/12/26 03:32:52;;;;;;;4.17;1.50;;;-3.10;92.70;;;;;;5033590;28;20045;-78
2021/12/26 03:35:19;;;;;;;4.77;1.50;;;-3.10;92.80;;;;;;5034323;28;20175;-78
2021/12/26 03:37:45;;;;;;;3.17;1.25;;;-3.10;92.80;;;;;;5034555;28;20057;-77
2021/12/26 03:40:11;;;;;;;4.75;1.40;;;-3.10;92.90;;;;;;5034208;28;20042;-77
2021/12/26 03:42:37;;;;;;;4.57;1.45;;;-3.10;92.60;;;;;;5034081;28;20392;-77
2021/12/26 03:45:05;;;;;;;6.32;1.40;;;-2.90;92.60;;;;;;5034173;28;20055;-77
2021/12/26 03:47:32;;;;;;;4.38;1.92;;;-3.20;92.70;;;;;;5018238;28;20087;-76
2021/12/26 03:49:58;;;;;;;3.25;1.52;;;-3.20;92.70;;;;;;5033872;28;20057;-77
2021/12/26 03:52:25;;;;;;;3.67;1.75;;;-3.20;92.60;;;;;;5033610;28;20142;-77
2021/12/26 03:54:54;;;;;;;5.13;1.92;;;-3.20;92.30;;;;;;5034051;28;20507;-77
2021/12/26 03:57:20;;;;;;;5.35;1.85;;;-3.20;92.60;;;;;;5017644;28;20468;-77
2021/12/26 03:59:47;;;;;;;5.85;1.50;;;-3.20;92.40;;;;;;5017695;28;20085;-77
2021/12/26 04:02:13;;;;;;;3.50;1.23;;;-3.30;92.40;;;;;;5033417;28;20141;-78
2021/12/26 04:04:39;;;;;;;4.30;1.43;;;-3.20;92.50;;;;;;5033377;28;20107;-78
2021/12/26 04:07:05;;;;;;;3.50;1.45;;;-3.20;92.20;;;;;;5033296;28;20443;-77
2021/12/26 04:09:31;;;;;;;4.53;1.27;;;-3.20;92.40;;;;;;5016905;28;20046;-77
2021/12/26 04:11:57;;;;;;;5.18;1.50;;;-3.20;92.30;;;;;;5017323;28;20054;-77
2021/12/26 04:14:22;;;;;;;7.50;1.30;;;-3.30;92.40;;;;;;5032880;28;20050;-77
2021/12/26 04:16:48;;;;;;;4.70;1.30;;;-3.30;92.30;;;;;;5017095;28;20054;-77
2021/12/26 04:19:15;;;;;;;3.28;1.30;;;-3.20;92.30;;;;;;5033176;28;20037;-77
2021/12/26 04:21:40;;;;;;;4.80;1.60;;;-3.30;92.20;;;;;;5016769;28;20073;-77
2021/12/26 04:24:06;;;;;;;3.13;1.13;;;-3.40;92.20;;;;;;5033430;28;20389;-77
2021/12/26 04:26:33;;;;;;;3.72;1.30;;;-3.30;92.40;;;;;;5032888;28;20053;-77
2021/12/26 04:28:58;;;;;;;7.15;1.38;;;-3.20;92.00;;;;;;5033233;28;20497;-77
2021/12/26 04:31:24;;;;;;;5.75;1.80;;;-3.30;92.00;;;;;;5033026;28;20077;-77
2021/12/26 04:33:51;;;;;;;6.60;1.63;;;-3.20;92.10;;;;;;5032461;28;20038;-77
2021/12/26 04:36:18;;;;;;;7.32;1.60;;;-3.20;92.00;;;;;;5033287;28;20045;-77
2021/12/26 04:38:44;;;;;;;5.47;1.90;;;-3.20;92.00;;;;;;5033211;28;20374;-77
2021/12/26 04:41:11;;;;;;;4.20;1.65;;;-3.20;92.10;;;;;;5033111;28;20096;-77
2021/12/26 04:43:38;;;;;;;4.87;2.00;;;-3.20;91.90;;;;;;5033820;28;20452;-77
2021/12/26 04:46:05;;;;;;;4.65;1.70;;;-3.10;92.10;;;;;;5036830;28;20049;-77
2021/12/26 04:48:32;;;;;;;6.35;1.83;;;-3.20;92.00;;;;;;5036795;28;20050;-77
2021/12/26 04:50:59;;;;;;;3.40;1.33;;;-3.20;92.30;;;;;;5036286;28;20057;-77
2021/12/26 04:53:25;;;;;;;4.50;1.30;;;-3.10;92.30;;;;;;5036652;28;20119;-77
2021/12/26 04:55:51;;;;;;;3.47;1.48;;;-3.10;92.20;;;;;;5036870;28;20493;-77
2021/12/26 04:58:16;;;;;;;5.25;1.70;;;-3.00;92.00;;;;;;5036695;28;20214;-77
2021/12/26 05:00:42;;;;;;;4.15;1.40;;;-3.00;92.00;;;;;;5036340;28;20049;-77
2021/12/26 05:03:08;;;;;;;4.70;1.50;;;-3.00;92.00;;;;;;5035681;28;20374;-77
2021/12/26 05:05:35;;;;;;;4.63;1.47;;;-3.00;91.70;;;;;;5036032;28;20046;-77
2021/12/26 05:08:01;;;;;;;3.93;1.20;;;-3.00;92.00;;;;;;5035976;28;20095;-77
2021/12/26 05:10:28;;;;;;;5.32;1.50;;;-3.00;92.00;;;;;;5019514;28;20053;-78
2021/12/26 05:12:59;;;;;;;3.67;1.50;;;-3.10;92.20;;;;;;5019446;28;20053;-78
2021/12/26 05:15:25;;;;;;;6.35;1.58;;;-3.10;92.20;;;;;;5036036;28;20416;-77
2021/12/26 05:17:52;;;;;;;3.00;1.10;;;-3.10;92.40;;;;;;5036138;28;20045;-77
2021/12/26 05:20:19;;;;;;;3.75;1.55;;;-3.00;92.50;;;;;;5019984;28;20444;-78
2021/12/26 05:22:46;;;;;;;2.90;1.40;;;-3.10;92.30;;;;;;5035789;28;20136;-77
2021/12/26 05:25:12;;;;;;;5.93;1.40;;;-3.20;91.90;;;;;;5035679;28;20050;-77
2021/12/26 05:27:38;;;;;;;4.53;1.70;;;-3.20;92.10;;;;;;5035849;28;20056;-77
2021/12/26 05:30:06;;;;;;;5.13;1.42;;;-3.20;92.10;;;;;;5019818;28;20076;-77
2021/12/26 05:32:32;;;;;;;4.88;1.75;;;-3.30;92.00;;;;;;5035609;28;20056;-78
2021/12/26 05:34:57;;;;;;;4.28;1.63;;;-3.40;92.40;;;;;;5035484;28;20420;-77
2021/12/26 05:37:23;;;;;;;4.45;1.83;;;-3.40;92.40;;;;;;5034980;28;20053;-78
2021/12/26 05:39:49;;;;;;;4.63;1.70;;;-3.40;92.40;;;;;;5035987;28;20046;-77
2021/12/26 05:42:16;;;;;;;3.70;1.50;;;-3.40;92.30;;;;;;5019306;28;20057;-78
2021/12/26 05:44:46;;;;;;;2.80;1.40;;;-3.40;92.40;;;;;;5035888;28;20053;-78
2021/12/26 05:47:12;;;;;;;4.35;1.85;;;-3.50;92.40;;;;;;5036022;28;20041;-77
2021/12/26 05:49:39;;;;;;;6.93;1.73;;;-3.50;92.50;;;;;;5034987;28;20096;-77
2021/12/26 05:52:06;;;;;;;2.77;1.10;;;-3.60;92.20;;;;;;5035577;28;20123;-77
2021/12/26 05:54:32;;;;;;;5.07;1.77;;;-3.70;92.50;;;;;;5018683;28;20049;-78
2021/12/26 05:56:58;;;;;;;3.75;1.65;;;-3.60;92.70;;;;;;5035712;28;20096;-77
2021/12/26 05:59:24;;;;;;;3.50;1.40;;;-3.50;92.50;;;;;;5035835;28;20393;-77
2021/12/26 06:01:50;;;;;;;4.03;1.30;;;-3.40;92.50;;;;;;5018916;28;20049;-77
2021/12/26 06:04:15;;;;;;;5.03;1.50;;;-3.50;92.40;;;;;;5034963;28;20104;-77
2021/12/26 06:06:43;;;;;;;3.43;1.50;;;-3.50;92.60;;;;;;5019247;28;20046;-76
2021/12/26 06:09:10;;;;;;;4.67;1.57;;;-3.50;92.40;;;;;;5019248;28;20045;-76
2021/12/26 06:11:36;;;;;;;4.13;1.40;;;-3.50;92.60;;;;;;5035498;28;20132;-76
2021/12/26 06:14:02;;;;;;;3.53;1.43;;;-3.50;92.20;;;;;;5034980;28;20128;-76
2021/12/26 06:16:28;;;;;;;6.25;2.05;;;-3.40;92.40;;;;;;5034953;28;20056;-77
2021/12/26 06:18:53;;;;;;;3.53;1.60;;;-3.50;92.30;;;;;;5034806;28;20049;-77
2021/12/26 06:21:19;;;;;;;3.57;1.47;;;-3.40;91.90;;;;;;5035242;28;20187;-76
2021/12/26 06:23:51;;;;;;;4.53;1.77;;;-3.60;92.10;;;;;;5018987;28;20404;-77
2021/12/26 06:26:17;;;;;;;5.20;1.80;;;-3.50;91.70;;;;;;5034132;28;20052;-77
2021/12/26 06:28:43;;;;;;;6.23;2.07;;;-3.60;91.90;;;;;;5018141;28;20045;-77
2021/12/26 06:31:09;;;;;;;6.77;2.20;;;-3.60;91.90;;;;;;5034038;28;20454;-77
2021/12/26 06:33:34;;;;;;;7.40;2.20;;;-3.60;91.60;;;;;;5017304;28;20056;-77
2021/12/26 06:36:00;;;;;;;4.68;1.90;;;-3.70;91.80;;;;;;5035203;28;20072;-77
2021/12/26 06:38:26;;;;;;;7.13;2.13;;;-3.70;91.60;;;;;;5035797;28;20485;-77
2021/12/26 06:40:52;;;;;;;11.80;1.80;;;-3.70;91.80;;;;;;5017577;28;20389;-77
2021/12/26 06:43:17;;;;;;;5.20;2.23;;;-3.70;91.80;;;;;;5050609;28;20049;-78
2021/12/26 06:45:43;;;;;;;7.40;2.07;;;-3.60;92.00;;;;;;5034460;28;20049;-77
2021/12/26 06:48:09;;;;;;;4.97;1.92;;;-3.60;92.10;;;;;;5017467;28;20081;-78
2021/12/26 06:50:36;;;;;;;6.07;2.33;;;-3.60;91.80;;;;;;5017242;28;20088;-77
2021/12/26 06:53:03;;;;;;;4.75;1.95;;;-3.60;91.60;;;;;;5033849;28;20045;-77
2021/12/26 06:55:29;;;;;;;5.60;2.35;;;-3.60;91.90;;;;;;5033684;28;20067;-78
2021/12/26 06:57:55;;;;;;;5.38;2.03;;;-3.60;91.50;;;;;;5033700;28;20396;-78
2021/12/26 07:00:21;;;;;;;6.05;2.05;;;-3.40;92.00;;;;;;5033738;28;20060;-77
2021/12/26 07:02:46;;;;;;;5.10;1.97;;;-3.40;91.70;;;;;;5033241;28;20374;-78
2021/12/26 07:05:14;;;;;;;3.00;1.77;;;-3.50;91.70;;;;;;5033852;28;20049;-77
2021/12/26 07:07:40;;;;;;;4.00;2.08;;;-3.40;91.60;;;;;;5033048;28;20053;-78
2021/12/26 07:10:07;;;;;;;6.43;2.37;;;-3.60;91.80;;;;;;5033574;28;20045;-78
2021/12/26 07:12:33;;;;;;;6.00;2.47;;;-3.60;91.40;;;;;;5033320;28;20111;-78
2021/12/26 07:14:58;;;;;;;4.90;2.00;;;-3.80;91.60;;;;;;5033672;28;20053;-77
2021/12/26 07:17:24;;;;;;;5.87;2.17;;;-3.70;91.70;;;;;;5033216;28;20056;-77
2021/12/26 07:19:51;;;;;;;6.17;2.17;;;-3.70;91.40;;;;;;5017043;28;20072;-77
2021/12/26 07:22:16;;;;;;;7.23;2.23;;;-3.60;91.70;;;;;;5033246;28;20046;-77
2021/12/26 07:24:43;;;;;;;6.77;2.27;;;-3.60;91.40;;;;;;5016713;28;20065;-77
2021/12/26 07:27:16;;;;;;;4.73;2.03;;;-3.60;91.50;;;;;;5017067;28;20160;-78
2021/12/26 07:29:42;;;;;;;4.70;2.37;;;-3.60;91.10;;;;;;5033365;28;20053;-78
2021/12/26 07:32:09;;;;;;;5.63;2.20;;;-3.60;91.20;;;;;;5033206;28;20481;-78
2021/12/26 07:34:35;;;;;;;6.57;2.40;;;-3.50;91.30;;;;;;5032580;28;20511;-78
2021/12/26 07:37:02;;;;;;;5.47;2.00;;;-3.60;91.10;;;;;;5033183;28;20049;-78
2021/12/26 07:39:28;;;;;;;6.03;1.80;;;-3.70;91.20;;;;;;5032730;28;20049;-78
2021/12/26 07:41:54;;;;;;;5.32;2.10;;;-3.70;91.40;;;;;;5033009;28;20595;-78
2021/12/26 07:44:20;;;;;;;5.53;1.90;;;-3.60;91.20;;;;;;5032846;28;20068;-78
2021/12/26 07:46:46;;;;;;;5.30;2.00;;;-4.10;91.40;;;;;;5016798;28;20053;-78
2021/12/26 07:49:11;;;;;;;7.10;2.13;;;-3.70;91.10;;;;;;5032490;28;20041;-78
2021/12/26 07:51:37;;;;;;;6.70;2.17;;;-3.60;91.10;;;;;;5032727;28;20473;-78
2021/12/26 07:54:03;;;;;;;7.60;2.47;;;-3.70;91.10;;;;;;5032458;28;20143;-78
2021/12/26 07:56:30;;;;;;;6.00;2.07;;;-3.60;91.20;;;;;;5033611;28;20045;-78
2021/12/26 07:58:56;;;;;;;4.67;2.47;;;-3.50;91.40;;;;;;5032924;28;20045;-78
2021/12/26 08:01:23;;;;;;;7.00;2.50;;;-3.50;91.30;;;;;;5033296;28;20076;-78
2021/12/26 08:03:48;;;;;;;4.77;2.30;;;-3.50;91.20;;;;;;5032591;28;20041;-78
2021/12/26 08:06:18;;;;;;;4.50;1.80;;;-3.60;91.40;;;;;;5016398;28;20060;-78
2021/12/26 08:08:48;;;;;;;5.45;2.50;;;-3.50;91.50;;;;;;5016280;28;20061;-79
2021/12/26 08:11:15;;;;;;;8.47;2.20;;;-3.40;91.30;;;;;;5032775;28;20049;-78
2021/12/26 08:13:41;;;;;;;6.80;2.50;;;-3.50;91.30;;;;;;5032507;28;20045;-78
2021/12/26 08:16:07;;;;;;;7.63;2.47;;;-3.50;91.30;;;;;;5032645;28;20060;-78
2021/12/26 08:18:33;;;;;;;7.63;2.67;;;-3.50;91.30;;;;;;5034410;28;20061;-78
2021/12/26 08:20:59;;;;;;;5.47;2.37;;;-3.50;91.30;;;;;;5036559;28;20045;-78
2021/12/26 08:23:26;;;;;;;5.63;2.67;;;-3.50;91.40;;;;;;5036644;28;20060;-78
2021/12/26 08:25:52;;;;;;;5.97;2.50;;;-3.50;91.60;;;;;;5036445;28;20049;-77
2021/12/26 08:28:17;;;;;;;7.20;2.73;;;-3.60;91.60;;;;;;5036726;28;20052;-78
2021/12/26 08:30:44;;;;;;;6.83;2.90;;;-3.50;91.40;;;;;;5036162;28;20041;-78
2021/12/26 08:33:10;;;;;;;8.98;3.28;;;-3.50;91.40;;;;;;5035781;28;20045;-78
2021/12/26 08:35:38;;;;;;;7.33;3.47;;;-3.60;91.30;;;;;;5052712;28;20065;-78
2021/12/26 08:38:04;;;;;;;6.53;2.50;;;-3.50;91.30;;;;;;5036238;28;20053;-78
2021/12/26 08:40:30;;;;;;;6.17;2.53;;;-3.50;91.20;;;;;;5035981;28;20064;-78
2021/12/26 08:42:56;;;;;;;6.90;2.83;;;-3.40;91.30;;;;;;5036370;28;20045;-78
2021/12/26 08:45:22;;;;;;;5.70;2.57;;;-3.50;91.50;;;;;;5019831;28;20473;-78
2021/12/26 08:47:48;;;;;;;4.77;2.70;;;-3.40;91.40;;;;;;5036262;28;20103;-84
2021/12/26 08:50:15;;;;;;;10.90;3.23;;;-3.10;92.60;;;;;;5035587;28;20484;-70
2021/12/26 08:52:41;;;;;;;7.25;3.42;;;-2.90;92.70;;;;;;5035762;28;20057;-71
2021/12/26 08:55:09;;;;;;;7.47;3.23;;;-3.00;91.40;;;;;;5035877;28;20136;-69
2021/12/26 08:57:34;;;;;;;6.90;3.47;;;-3.00;91.60;;;;;;5036747;28;20067;-71
2021/12/26 09:00:03;;;;;;;8.00;3.15;;;-3.20;91.50;;;;;;5036372;28;20128;-70
2021/12/26 09:02:29;;;;;;;6.63;2.97;;;-3.20;91.70;;;;;;5035321;28;20064;-71
2021/12/26 09:04:54;;;;;;;6.35;3.47;;;-3.20;91.70;;;;;;5035404;28;20395;-70
2021/12/26 09:07:20;;;;;;;7.47;3.37;;;-3.30;91.60;;;;;;5036609;28;20041;-71
2021/12/26 09:09:46;;;;;;;4.82;2.58;;;-3.30;91.80;;;;;;5035815;28;20546;-70
2021/12/26 09:12:12;;;;;;;6.18;3.50;;;-3.20;91.80;;;;;;5018961;28;20096;-71
2021/12/26 09:14:39;;;;;;;5.85;3.20;;;-3.20;91.50;;;;;;5035324;28;20052;-70
2021/12/26 09:17:06;;;;;;;5.53;2.78;;;-3.10;91.70;;;;;;5039629;28;20044;-69
2021/12/26 09:19:33;;;;;;;6.88;3.20;;;-3.20;91.60;;;;;;5042503;28;20050;-72
2021/12/26 09:22:03;;;;;;;8.87;3.27;;;-3.20;91.70;;;;;;5035431;28;20057;-71
2021/12/26 09:24:29;;;;;;;7.15;3.20;;;-3.10;91.70;;;;;;5035640;28;20045;-75
2021/12/26 09:26:56;;;;;;;5.70;3.00;;;-3.10;91.70;;;;;;5035268;28;20503;-75
2021/12/26 09:29:22;;;;;;;8.10;3.53;;;-3.00;91.70;;;;;;5018334;28;20107;-75
2021/12/26 09:31:48;;;;;;;7.93;3.28;;;-2.80;91.70;;;;;;5035441;28;20536;-75
2021/12/26 09:34:16;;;;;;;7.43;3.95;;;-2.80;91.40;;;;;;5034803;28;20160;-75
2021/12/26 09:36:43;;;;;;;5.63;3.10;;;-3.00;91.10;;;;;;5018984;28;20041;-75
2021/12/26 09:39:09;;;;;;;7.43;3.60;;;-3.00;91.40;;;;;;5014522;28;20111;-76
2021/12/26 09:41:36;;;;;;;6.97;3.10;;;-2.70;91.50;;;;;;5035107;28;20049;-75
2021/12/26 09:44:02;;;;;;;6.53;3.17;;;-2.90;91.80;;;;;;5009622;28;20176;-75
2021/12/26 09:46:32;;;;;;;8.32;3.45;;;-2.70;91.70;;;;;;4998842;28;20132;-75
2021/12/26 09:48:58;;;;;;;10.00;3.22;;;-2.60;91.80;;;;;;5035386;28;20048;-76
2021/12/26 09:51:25;;;;;;;9.02;3.42;;;-2.50;91.50;;;;;;5034365;28;20057;-75
2021/12/26 09:53:51;;;;;;;5.68;3.15;;;-2.50;91.30;;;;;;5034469;28;20045;-75
2021/12/26 09:56:18;;;;;;;6.70;2.90;;;-2.30;91.40;;;;;;5026558;28;20112;-75
2021/12/26 09:58:54;;;;;;;9.40;3.63;;;-2.40;91.70;;;;;;4998756;28;20370;-76
2021/12/26 10:01:30;;;;;;;;;;;-2.30;91.70;;;;;;5015509;28;20441;-77
2021/12/26 10:03:59;;;;;;;7.70;3.22;;;-2.30;91.70;;;;;;5017129;28;20265;-76
2021/12/26 10:06:25;;;;;;;7.22;3.17;;;-2.30;91.60;;;;;;5016750;28;20393;-75
2021/12/26 10:08:54;;;;;;;7.72;3.03;;;-2.00;91.40;;;;;;5035061;28;20053;-76
2021/12/26 10:11:22;;;;;;;8.80;3.58;;;-2.10;91.50;;;;;;5034422;28;20512;-75
2021/12/26 10:13:56;;;;;;;9.02;3.20;;;-2.10;92.00;;;;;;5034630;28;20041;-77
2021/12/26 10:16:25;;;;;;;6.63;2.90;;;-1.90;91.60;;;;;;5035108;28;20045;-78
2021/12/26 10:18:51;;;;;;;8.57;3.28;;;-1.70;91.40;;;;;;5018724;28;20060;-78
2021/12/26 10:21:30;;;;;;;4.97;2.65;;;-1.70;91.40;;;;;;5002671;28;20049;-78
2021/12/26 10:24:00;;;;;;;5.88;2.90;;;-1.40;91.40;;;;;;5034964;28;20092;-77
2021/12/26 10:26:28;;;;;;;7.93;3.72;;;-1.00;91.70;;;;;;5034684;28;20085;-77
2021/12/26 10:29:18;;;;;;;8.48;3.15;;;-1.00;91.50;;;;;;5034690;28;20132;-82
2021/12/26 10:31:55;;;;;;;7.97;3.45;;;-1.00;91.40;;;;;;5034442;28;20045;-76
2021/12/26 10:34:25;;;;;;;5.57;2.72;;;-0.90;91.80;;;;;;5033675;28;20041;-74
2021/12/26 10:36:53;;;;;;;6.25;2.83;;;-0.70;91.30;;;;;;5034232;28;20136;-72
2021/12/26 10:39:22;;;;;;;8.15;3.50;;;-0.60;91.00;;;;;;5033752;28;20048;-70
2021/12/26 10:41:57;;;;;;;6.43;2.67;;;-0.40;91.20;;;;;;5033844;28;20473;-73
2021/12/26 10:44:27;;;;;;;8.97;3.27;;;-0.30;90.80;;;;;;5033942;28;20053;-74
2021/12/26 10:46:57;;;;;;;5.10;2.72;;;-0.20;90.90;;;;;;5034061;28;20495;-74
2021/12/26 10:49:27;;;;;;;4.68;2.42;;;-0.20;90.80;;;;;;5033710;28;20127;-72
2021/12/26 10:51:53;;;;;;;5.30;2.75;;;-0.40;90.60;;;;;;5033924;28;20057;-76
2021/12/26 10:54:25;;;;;;;7.53;3.28;;;-0.40;90.30;;;;;;5033503;28;20052;-72
2021/12/26 10:57:06;;;;;;;6.38;2.95;;;-0.30;90.90;;;;;;5034012;28;20049;-75
2021/12/26 10:59:32;;;;;;;6.47;2.55;;;-0.30;90.80;;;;;;5033482;28;20053;-76
2021/12/26 11:01:57;;;;;;;4.53;2.65;;;-0.40;90.70;;;;;;5033391;28;20045;-76
2021/12/26 11:04:26;;;;;;;6.72;2.55;;;-0.60;90.60;;;;;;5016618;28;20041;-76
2021/12/26 11:07:02;;;;;;;6.63;3.42;;;-0.50;91.20;;;;;;5000946;28;20057;-76
2021/12/26 11:09:28;;;;;;;6.07;2.78;;;-0.40;90.90;;;;;;5033733;28;20049;-76
2021/12/26 11:12:09;;;;;;;10.65;3.30;;;-0.40;90.60;;;;;;5033247;28;20419;-76
2021/12/26 11:14:58;;;;;;;9.65;3.03;;;-0.50;90.60;;;;;;5016819;28;20128;-74
2021/12/26 11:17:32;;;;;;;6.68;2.63;;;-0.50;90.70;;;;;;5033168;28;20043;-76
2021/12/26 11:19:57;;;;;;;5.22;2.92;;;-0.50;90.90;;;;;;5016625;28;20098;-76
2021/12/26 11:22:25;;;;;;;7.75;2.88;;;-0.50;90.60;;;;;;5016742;28;20049;-75
2021/12/26 11:24:53;;;;;;;8.55;2.97;;;-0.50;90.90;;;;;;5033225;28;20056;-76
2021/12/26 11:27:20;;;;;;;5.78;3.00;;;-0.30;91.00;;;;;;5016774;28;20060;-76
2021/12/26 11:29:55;;;;;;;5.82;3.00;;;-0.10;91.00;;;;;;5033298;28;20056;-77
2021/12/26 11:32:25;;;;;;;7.78;3.33;;;-0.10;90.80;;;;;;5017592;28;20141;-77
2021/12/26 11:34:50;;;;;;;5.70;2.80;;;0.00;90.60;;;;;;5032298;28;20045;-77
2021/12/26 11:37:17;;;;;;;6.65;2.63;;;0.30;90.30;;;;;;5016783;28;20503;-78
2021/12/26 11:39:44;;;;;;;5.50;2.42;;;0.30;90.10;;;;;;5017197;28;20045;-72
2021/12/26 11:42:39;;;;;;;7.30;2.33;;;0.60;90.20;;;;;;5024834;28;20041;-77
2021/12/26 11:45:20;;;;;;;8.68;3.08;;;0.80;89.90;;;;;;5028134;28;20118;-77
2021/12/26 11:48:25;;;;;;;6.55;2.70;;;1.10;89.20;;;;;;5032660;28;20049;-77
2021/12/26 11:51:20;;;;;;;10.02;3.05;;;1.30;88.40;;;;;;5016115;28;20062;-83
2021/12/26 11:54:19;;;;;;;5.38;2.90;;;1.10;88.50;;;;;;5051100;28;20042;-79
2021/12/26 11:57:10;;;;;;;6.03;2.88;;;1.00;89.10;;;;;;5013128;28;20045;-74
2021/12/26 12:00:07;;;;;;;6.72;2.70;;;0.70;89.40;;;;;;5042005;28;20045;-77
2021/12/26 12:02:47;;;;;;;8.10;2.90;;;0.50;89.30;;;;;;5046092;28;20053;-71
2021/12/26 12:05:18;;;;;;;8.35;3.28;;;0.50;89.60;;;;;;5031138;28;20096;-70
2021/12/26 12:07:48;;;;;;;7.15;3.15;;;0.50;89.70;;;;;;5033477;28;20049;-74
2021/12/26 12:10:40;;;;;;;8.05;3.05;;;0.80;89.90;;;;;;5034353;28;20099;-71
2021/12/26 12:13:08;;;;;;;5.95;2.58;;;1.10;88.80;;;;;;5032247;28;20041;-75
2021/12/26 12:15:54;;;;;;;6.60;2.63;;;1.40;89.30;;;;;;5030589;28;20507;-73
2021/12/26 12:18:25;;;;;;;6.72;3.00;;;1.70;88.10;;;;;;5022896;28;20148;-72
2021/12/26 12:21:08;;;;;;;5.93;2.80;;;1.70;87.50;;;;;;5031866;28;20076;-72
2021/12/26 12:23:35;;;;;;;6.43;2.90;;;1.80;88.20;;;;;;5038543;28;20396;-69
2021/12/26 12:26:01;;;;;;;8.60;3.05;;;1.70;87.70;;;;;;5015778;28;20041;-69
2021/12/26 12:28:43;;;;;;;7.32;3.05;;;1.50;87.90;;;;;;5033848;28;20440;-88
2021/12/26 12:31:09;;;;;;;6.05;2.83;;;1.30;90.50;;;;;;5032450;28;20481;-69
2021/12/26 12:33:36;;;;;;;6.50;3.03;;;1.30;89.30;;;;;;5015163;28;20045;-69
2021/12/26 12:36:13;;;;;;;7.72;2.80;;;1.30;89.50;;;;;;5009124;28;20065;-69
2021/12/26 12:38:48;;;;;;;7.30;3.10;;;1.60;88.70;;;;;;5031713;28;20057;-70
2021/12/26 12:41:29;;;;;;;6.50;2.70;;;1.90;89.30;;;;;;5031791;28;20106;-70
2021/12/26 12:43:57;;;;;;;5.20;2.67;;;2.30;88.70;;;;;;5032114;28;20049;-70
2021/12/26 12:46:24;;;;;;;7.28;3.20;;;2.50;87.80;;;;;;5015669;28;20508;-72
2021/12/26 12:49:06;;;;;;;9.25;3.15;;;3.10;87.80;;;;;;5032739;28;20049;-69
2021/12/26 12:51:36;;;;;;;7.78;3.15;;;3.30;86.20;;;;;;5032265;28;20057;-70
2021/12/26 12:54:18;;;;;;;5.90;2.88;;;3.90;85.90;;;;;;5031751;28;20056;-68
2021/12/26 12:56:45;;;;;;;9.10;3.15;;;4.50;85.80;;;;;;5033147;28;20053;-69
2021/12/26 12:59:14;;;;;;;9.35;3.15;;;4.50;83.80;;;;;;5033163;28;20135;-70